Time;durP1;ratioP1;P1;durP2;ratioP2;P2;SDS_P1;SDS_P2;PMS_P1;PMS_P2;Temp;Humidity;BMP_temperature;BMP_pressure;BME280_temperature;BME280_humidity;BME280_pressure;Samples;Min_cycle;Max_cycle;Signal;HPM_P1;HPM_P2
2023/01/13 00:01:33;;;;;;;2.17;0.77;;;8.40;58.70;;;3.57;82.38;95537.84;4967747;28;20406;-51
2023/01/13 00:04:03;;;;;;;3.47;1.17;;;8.40;58.70;;;3.54;82.49;95536.50;4968699;28;20030;-50
2023/01/13 00:06:32;;;;;;;3.05;0.73;;;8.40;58.70;;;3.53;82.67;95536.69;4947803;28;20057;-50
2023/01/13 00:08:58;;;;;;;5.00;0.75;;;8.30;58.70;;;3.52;82.11;95527.19;4952244;28;20385;-50
2023/01/13 00:11:25;;;;;;;1.45;0.85;;;8.30;58.70;;;3.40;82.22;95527.91;4971095;28;20029;-52
2023/01/13 00:13:51;;;;;;;4.25;1.08;;;8.30;58.70;;;3.32;82.76;95527.41;4946227;28;20031;-50
2023/01/13 00:16:20;;;;;;;4.00;0.90;;;8.30;58.70;;;3.24;83.00;95510.88;4971886;28;20037;-52
2023/01/13 00:18:49;;;;;;;1.35;0.70;;;8.20;58.80;;;3.23;83.33;95508.50;4933883;28;20602;-53
2023/01/13 00:21:27;;;;;;;3.67;0.90;;;8.10;58.80;;;3.28;82.97;95498.09;4972491;28;20362;-50
2023/01/13 00:23:54;;;;;;;2.00;0.95;;;8.20;58.90;;;3.33;82.99;95492.97;4970902;28;20026;-50
2023/01/13 00:26:29;;;;;;;0.98;0.70;;;8.20;59.00;;;3.36;82.62;95504.91;4971035;28;20026;-52
2023/01/13 00:28:59;;;;;;;2.03;1.10;;;8.20;59.10;;;3.35;82.85;95503.28;4971503;28;20041;-51
2023/01/13 00:31:34;;;;;;;1.65;0.80;;;8.20;59.10;;;3.38;82.39;95494.94;4951115;28;20081;-52
2023/01/13 00:34:03;;;;;;;2.25;1.10;;;8.20;59.10;;;3.36;82.72;95489.09;4969632;28;20033;-50
2023/01/13 00:36:30;;;;;;;1.65;0.70;;;8.20;59.10;;;3.34;82.79;95486.66;4956441;28;20034;-53
2023/01/13 00:38:57;;;;;;;2.95;1.20;;;8.20;59.10;;;3.34;82.66;95485.88;4936317;28;20034;-52
2023/01/13 00:44:23;;;;;;;2.08;0.70;;;8.20;59.20;;;3.34;83.93;95484.03;4961350;28;20381;-52
2023/01/13 00:46:48;;;;;;;1.40;0.70;;;8.20;59.20;;;3.38;84.96;95479.94;4954110;28;20030;-53
2023/01/13 00:49:17;;;;;;;1.13;0.60;;;8.30;59.30;;;3.45;84.20;95477.25;4950281;28;20026;-50
2023/01/13 00:51:43;;;;;;;1.45;0.60;;;8.30;59.40;;;3.57;83.47;95472.00;4954141;28;20041;-53
2023/01/13 00:54:20;;;;;;;2.03;0.60;;;8.40;59.50;;;3.76;82.70;95478.03;4969167;28;20022;-50
2023/01/13 00:56:46;;;;;;;2.15;0.80;;;8.40;59.60;;;3.91;82.59;95481.84;4941083;28;20084;-56
2023/01/13 00:59:13;;;;;;;2.25;0.73;;;8.50;59.60;;;4.13;80.66;95482.13;4971215;28;20022;-51
2023/01/13 01:01:40;;;;;;;1.30;0.70;;;8.60;59.70;;;4.38;79.40;95478.50;4970936;28;20122;-49
2023/01/13 01:04:06;;;;;;;2.42;0.88;;;8.80;59.80;;;4.58;78.46;95480.84;4950938;28;20026;-54
2023/01/13 01:06:35;;;;;;;0.70;0.57;;;8.90;59.70;;;4.79;78.05;95472.31;4942090;28;20080;-52
2023/01/13 01:09:01;;;;;;;3.22;0.68;;;9.00;59.60;;;4.92;77.23;95478.41;4933697;28;20075;-51
2023/01/13 01:11:36;;;;;;;0.93;0.52;;;9.20;59.50;;;5.01;76.38;95474.38;4972387;28;20022;-53
2023/01/13 01:14:06;;;;;;;5.05;0.82;;;9.30;59.20;;;5.15;75.46;95488.16;4951646;28;20022;-53
2023/01/13 01:16:33;;;;;;;1.75;0.77;;;9.50;59.10;;;5.31;74.98;95482.13;4953872;28;20022;-54
2023/01/13 01:19:00;;;;;;;2.60;0.70;;;9.60;59.00;;;5.41;73.79;95482.34;4953065;28;20053;-55
2023/01/13 01:21:28;;;;;;;2.05;0.70;;;9.70;58.80;;;5.53;73.09;95482.31;4954136;28;20030;-51
2023/01/13 01:24:02;;;;;;;1.48;0.60;;;9.80;58.60;;;5.64;72.52;95480.66;4953050;28;20653;-52
2023/01/13 01:26:37;;;;;;;4.05;0.70;;;9.90;58.40;;;5.75;71.63;95485.91;4953557;28;20038;-50
2023/01/13 01:29:05;;;;;;;1.63;0.73;;;10.10;58.20;;;5.86;71.50;95489.53;4956843;28;20026;-53
2023/01/13 01:31:39;;;;;;;0.93;0.50;;;10.20;58.00;;;5.88;70.98;95489.28;4942425;28;20023;-51
2023/01/13 01:34:11;;;;;;;0.73;0.47;;;10.30;57.80;;;5.92;70.85;95485.13;4964774;28;20629;-55
2023/01/13 01:36:38;;;;;;;0.75;0.60;;;10.30;57.60;;;6.01;69.92;95495.13;4945452;28;20034;-50
2023/01/13 01:39:07;;;;;;;2.05;0.57;;;10.40;57.50;;;6.20;71.01;95489.63;4965836;28;20535;-56
2023/01/13 01:43:57;;;;;;;1.17;0.70;;;10.50;57.20;;;6.27;71.21;95490.28;4938046;28;20429;-53
2023/01/13 01:44:59;;;;;;;1.45;0.70;;;10.50;57.10;;;6.25;72.25;95481.78;4970464;28;20505;-50
2023/01/13 01:47:32;;;;;;;1.90;0.70;;;10.60;57.20;;;6.23;73.31;95483.84;4950565;28;20121;-53
2023/01/13 01:50:03;;;;;;;2.35;0.93;;;10.50;57.20;;;6.22;72.96;95482.25;4945935;28;20076;-53
2023/01/13 01:52:39;;;;;;;1.48;0.70;;;10.50;57.20;;;6.21;72.74;95472.72;4953628;28;20117;-53
2023/01/13 01:55:24;;;;;;;1.52;0.60;;;10.50;57.20;;;6.20;72.27;95466.59;4952268;28;20117;-50
2023/01/13 01:58:41;;;;;;;0.65;0.60;;;10.50;57.20;;;6.23;72.08;95465.34;4970761;28;20088;-58
2023/01/13 02:01:10;;;;;;;2.45;0.90;;;10.50;57.10;;;6.21;71.98;95470.88;4966335;28;20038;-50
2023/01/13 02:03:58;;;;;;;1.67;0.80;;;10.50;57.20;;;6.18;72.52;95471.34;4967013;28;20061;-52
2023/01/13 02:06:32;;;;;;;2.67;0.60;;;10.50;57.00;;;6.15;71.57;95473.69;4954361;28;20112;-53
2023/01/13 02:09:00;;;;;;;1.90;0.73;;;10.60;57.10;;;6.15;72.75;95473.69;4953405;28;20049;-51
2023/01/13 02:14:28;;;;;;;0.60;0.60;;;10.60;56.90;;;6.11;71.74;95470.72;4963714;28;20045;-50
2023/01/13 02:17:44;;;;;;;1.00;0.60;;;10.60;56.90;;;6.10;71.60;95469.09;4956696;28;20049;-54
2023/01/13 02:21:21;;;;;;;2.50;0.90;;;10.60;56.80;;;6.14;73.19;95461.47;4970387;28;20105;-51
2023/01/13 02:27:42;;;;;;;1.55;0.65;;;10.60;56.80;;;6.13;70.69;95450.09;4948316;28;20137;-50
2023/01/13 02:33:45;;;;;;;3.80;0.70;;;10.60;56.50;;;6.35;69.79;95460.78;4946978;28;20444;-50
2023/01/13 02:36:42;;;;;;;4.68;0.95;;;10.70;56.40;;;6.35;69.27;95458.13;4948820;28;20033;-52
2023/01/13 02:39:41;;;;;;;2.17;0.65;;;10.80;56.40;;;6.44;69.19;95461.97;4967368;28;20033;-51
2023/01/13 02:45:36;;;;;;;2.67;0.90;;;10.80;56.00;;;6.49;68.90;95456.78;4956212;28;20033;-50
2023/01/13 02:48:08;;;;;;;2.75;0.80;;;10.90;55.90;;;6.57;68.86;95444.16;4949821;28;20022;-53
2023/01/13 02:51:09;;;;;;;2.30;0.70;;;11.00;55.80;;;6.64;68.98;95456.22;4963756;28;20050;-50
2023/01/13 02:54:07;;;;;;;2.70;0.90;;;11.00;55.60;;;6.69;70.35;95453.63;4950807;28;20401;-51
2023/01/13 02:56:46;;;;;;;2.78;0.82;;;11.10;55.60;;;6.65;70.69;95439.28;4966579;28;20038;-51
2023/01/13 02:59:16;;;;;;;1.67;1.02;;;11.10;55.70;;;6.67;71.63;95445.09;4957341;28;20105;-50
2023/01/13 03:01:48;;;;;;;2.28;0.80;;;11.10;55.70;;;6.67;71.09;95445.09;4946797;28;20200;-50
2023/01/13 03:04:56;;;;;;;1.25;0.80;;;11.10;55.60;;;6.69;73.08;95440.38;4931335;28;20121;-53
2023/01/13 03:08:38;;;;;;;0.90;0.70;;;11.20;55.80;;;6.62;74.27;95450.34;4955134;28;20394;-50
2023/01/13 03:11:31;;;;;;;1.70;0.82;;;11.10;56.00;;;6.56;76.20;95455.81;4966488;28;20053;-51
2023/01/13 03:14:07;;;;;;;1.80;0.90;;;11.00;56.30;;;6.46;76.95;95459.09;4954606;28;20072;-50
2023/01/13 03:17:15;;;;;;;1.90;0.60;;;10.90;56.70;;;6.36;78.63;95454.47;4946972;28;20044;-49
2023/01/13 03:20:06;;;;;;;4.38;0.93;;;10.90;57.00;;;6.27;81.53;95455.91;4960018;28;20100;-53
2023/01/13 03:23:14;;;;;;;1.63;0.90;;;10.70;57.50;;;6.19;83.02;95456.28;4940224;28;20050;-51
2023/01/13 03:26:01;;;;;;;2.95;1.00;;;10.60;57.90;;;6.05;83.65;95455.81;4958574;28;20038;-50
2023/01/13 03:28:59;;;;;;;3.63;0.90;;;10.50;58.30;;;6.00;85.57;95461.00;4940701;28;20030;-51
2023/01/13 03:31:47;;;;;;;2.78;0.90;;;10.40;58.70;;;5.94;85.57;95456.66;4943795;28;20046;-49
2023/01/13 03:34:30;;;;;;;1.98;0.80;;;10.30;59.00;;;5.92;85.58;95454.22;4965206;28;20030;-49
2023/01/13 03:37:03;;;;;;;3.38;0.90;;;10.30;59.30;;;5.88;86.48;95445.16;4955318;28;20030;-50
2023/01/13 03:39:39;;;;;;;3.53;0.98;;;10.30;59.60;;;5.87;86.24;95442.75;4939422;28;20023;-49
2023/01/13 03:42:22;;;;;;;4.30;1.10;;;10.20;59.70;;;5.83;87.12;95442.44;4930648;28;20022;-51
2023/01/13 03:45:13;;;;;;;1.25;0.98;;;10.20;59.90;;;5.80;86.98;95437.63;4966313;28;20061;-49
2023/01/13 03:48:02;;;;;;;0.93;0.68;;;10.20;60.10;;;5.78;87.05;95437.84;4945671;28;20061;-57
2023/01/13 03:50:49;;;;;;;2.33;1.20;;;10.10;60.30;;;5.76;87.75;95431.19;4927546;28;20030;-55
2023/01/13 03:53:30;;;;;;;2.83;1.13;;;10.10;60.60;;;5.78;88.33;95429.13;4945218;28;20109;-54
2023/01/13 03:56:28;;;;;;;2.92;0.90;;;10.10;60.80;;;5.78;88.25;95435.19;4949264;28;20053;-54
2023/01/13 03:58:59;;;;;;;2.88;0.98;;;10.10;61.10;;;5.81;88.30;95436.56;4944824;28;20027;-51
2023/01/13 04:02:25;;;;;;;2.45;0.82;;;10.10;61.20;;;5.79;88.17;95442.09;4945699;28;20569;-54
2023/01/13 04:05:07;;;;;;;1.95;0.98;;;10.10;61.30;;;5.79;89.40;95444.72;4968916;28;20138;-56
2023/01/13 04:08:01;;;;;;;2.20;1.23;;;10.10;61.50;;;5.76;88.95;95441.75;4951513;28;20033;-53
2023/01/13 04:11:09;;;;;;;2.40;0.90;;;10.10;61.60;;;5.79;88.83;95444.72;4953006;28;20137;-50
2023/01/13 04:13:42;;;;;;;1.40;0.80;;;10.10;61.70;;;5.82;88.19;95443.47;4965225;28;20040;-55
2023/01/13 04:16:13;;;;;;;1.40;0.70;;;10.10;61.90;;;5.85;89.51;95442.19;4958264;28;20052;-51
2023/01/13 04:18:42;;;;;;;1.35;0.90;;;10.20;62.00;;;5.86;89.75;95443.78;4946667;28;20062;-50
2023/01/13 04:21:08;;;;;;;2.05;0.90;;;10.20;62.20;;;5.87;89.77;95432.19;4953302;28;20044;-52
2023/01/13 04:23:34;;;;;;;3.70;0.70;;;10.20;62.20;;;5.85;89.50;95432.41;4953996;28;20560;-50
2023/01/13 04:26:00;;;;;;;1.55;1.10;;;10.20;62.30;;;5.89;89.75;95422.16;4952711;28;20038;-49
2023/01/13 04:28:33;;;;;;;4.55;0.95;;;10.10;62.40;;;5.90;89.89;95423.78;4941309;28;20033;-50
2023/01/13 04:30:59;;;;;;;2.03;0.80;;;10.20;62.60;;;5.89;89.16;95427.44;4969118;28;20532;-52
2023/01/13 04:33:25;;;;;;;1.95;0.70;;;10.20;62.60;;;5.91;90.39;95420.88;4949356;28;20473;-53
2023/01/13 04:36:09;;;;;;;1.92;0.60;;;10.20;62.60;;;5.95;89.20;95423.88;4952043;28;20084;-51
2023/01/13 04:38:35;;;;;;;3.92;0.85;;;10.20;62.90;;;5.99;89.35;95417.09;4970368;28;20034;-51
2023/01/13 04:41:07;;;;;;;3.83;0.88;;;10.20;62.90;;;6.01;89.91;95423.72;4933936;28;20029;-50
2023/01/13 04:43:33;;;;;;;1.90;0.70;;;10.20;63.00;;;6.01;90.24;95413.13;4952084;28;20030;-51
2023/01/13 04:45:58;;;;;;;1.27;0.77;;;10.20;63.10;;;6.02;90.72;95414.75;4969824;28;20037;-50
2023/01/13 04:48:27;;;;;;;1.15;0.70;;;10.20;63.20;;;6.01;91.48;95418.44;4963622;28;20031;-50
2023/01/13 04:50:53;;;;;;;3.17;0.70;;;10.20;63.40;;;6.02;91.14;95419.25;4952977;28;20052;-49
2023/01/13 04:53:19;;;;;;;1.65;0.68;;;10.20;63.60;;;6.07;91.82;95418.53;4953069;28;20022;-50
2023/01/13 04:55:48;;;;;;;1.17;0.50;;;10.20;63.70;;;6.08;92.08;95420.94;4949236;28;20085;-49
2023/01/13 04:58:14;;;;;;;4.03;0.95;;;10.20;63.90;;;6.09;91.91;95424.38;4958039;28;20022;-50
2023/01/13 05:00:40;;;;;;;2.30;0.50;;;10.20;64.00;;;6.07;92.07;95427.25;4962547;28;20092;-51
2023/01/13 05:03:06;;;;;;;1.60;0.70;;;10.20;64.00;;;6.09;92.88;95430.47;4942729;28;20030;-50
2023/01/13 05:05:33;;;;;;;1.30;0.60;;;10.20;64.10;;;6.07;92.60;95432.53;4952548;28;20046;-55
2023/01/13 05:08:05;;;;;;;0.98;0.90;;;10.30;64.30;;;6.10;93.30;95437.34;4932104;28;20092;-50
2023/01/13 05:10:34;;;;;;;1.40;0.77;;;10.30;64.40;;;6.10;93.05;95428.63;4950783;28;20113;-50
2023/01/13 05:16:58;;;;;;;;;;;10.30;64.60;;;6.10;95.08;95436.56;4969875;28;20053;-50
2023/01/13 05:18:54;;;;;;;3.20;0.93;;;10.30;64.30;;;6.05;95.75;95431.16;4970446;28;20363;-49
2023/01/13 05:26:55;;;;;;;4.25;0.68;;;10.20;65.00;;;5.99;96.99;95423.19;4960555;28;20112;-52
2023/01/13 05:29:26;;;;;;;2.42;0.60;;;10.20;65.30;;;5.96;97.76;95428.16;4945777;28;20404;-50
2023/01/13 05:32:01;;;;;;;4.03;0.60;;;10.20;65.70;;;5.96;98.37;95425.50;4964600;28;20022;-49
2023/01/13 05:34:27;;;;;;;3.75;0.85;;;10.20;66.00;;;5.89;98.54;95414.22;4961526;28;20381;-53
2023/01/13 05:36:53;;;;;;;2.83;0.75;;;10.20;66.10;;;5.86;99.26;95404.94;4963716;28;20022;-50
2023/01/13 05:39:21;;;;;;;2.40;0.80;;;10.20;66.20;;;5.86;98.66;95410.25;4962127;28;20085;-51
2023/01/13 05:44:31;;;;;;;4.20;1.00;;;10.10;66.50;;;5.84;98.27;95414.94;4969682;28;20122;-50
2023/01/13 05:47:00;;;;;;;3.33;0.90;;;10.10;66.60;;;5.87;96.32;95409.19;4968604;28;20113;-57
2023/01/13 05:49:29;;;;;;;2.30;0.68;;;10.10;66.80;;;5.90;97.19;95408.72;4959516;28;20101;-49
2023/01/13 05:51:58;;;;;;;2.97;0.90;;;10.20;66.90;;;5.91;97.96;95420.88;4968337;28;20110;-52
2023/01/13 05:54:24;;;;;;;4.07;0.88;;;10.20;66.90;;;5.90;95.22;95421.13;4968658;28;20028;-50
2023/01/13 05:56:50;;;;;;;4.22;0.90;;;10.20;66.90;;;5.94;94.51;95414.34;4955497;28;20034;-52
2023/01/13 05:59:15;;;;;;;4.05;0.88;;;10.20;66.90;;;5.97;95.19;95421.81;4965150;28;20489;-59
2023/01/13 06:01:41;;;;;;;3.75;0.85;;;10.20;66.70;;;5.94;94.13;95414.34;4922946;28;20050;-55
2023/01/13 06:04:10;;;;;;;2.17;0.80;;;10.30;66.60;;;5.91;95.77;95422.72;4956498;28;20077;-51
2023/01/13 06:06:39;;;;;;;5.35;0.70;;;10.30;66.60;;;5.87;96.10;95417.13;4958478;28;20048;-50
2023/01/13 06:09:04;;;;;;;2.80;1.00;;;10.30;66.60;;;5.87;96.27;95421.63;4953403;28;20029;-52
2023/01/13 06:11:36;;;;;;;5.40;1.10;;;10.20;66.50;;;5.84;97.80;95424.72;4969234;28;20449;-49
2023/01/13 06:14:02;;;;;;;3.92;1.13;;;10.20;66.70;;;5.80;98.02;95411.19;4948077;28;20485;-54
2023/01/13 06:16:28;;;;;;;4.57;1.80;;;10.20;66.70;;;5.73;96.80;95415.81;4966235;28;20034;-53
2023/01/13 06:18:56;;;;;;;3.67;0.95;;;10.20;66.80;;;5.70;98.52;95425.03;4951419;28;20034;-52
2023/01/13 06:21:22;;;;;;;6.28;1.30;;;10.10;66.90;;;5.69;98.97;95418.13;4965181;28;20022;-54
2023/01/13 06:23:48;;;;;;;3.90;1.23;;;10.10;67.00;;;5.60;98.74;95422.19;4959944;28;20029;-50
2023/01/13 06:26:21;;;;;;;5.72;1.00;;;10.10;67.10;;;5.61;98.82;95415.06;4954137;28;20034;-50
2023/01/13 06:28:48;;;;;;;4.10;1.33;;;10.10;67.30;;;5.61;98.93;95425.63;4953272;28;20097;-49
2023/01/13 06:31:15;;;;;;;3.00;0.98;;;10.00;67.30;;;5.61;99.53;95428.28;4952423;28;20079;-50
2023/01/13 06:34:10;;;;;;;3.42;1.10;;;10.00;67.40;;;5.59;99.30;95423.22;4957917;28;20026;-56
2023/01/13 06:36:53;;;;;;;5.68;1.20;;;10.00;67.60;;;5.58;99.03;95424.28;4951570;28;20064;-53
2023/01/13 06:39:27;;;;;;;3.78;1.42;;;10.00;67.70;;;5.61;99.06;95418.53;4962204;28;20035;-56
2023/01/13 06:44:38;;;;;;;3.00;1.05;;;10.00;67.60;;;5.60;98.30;95429.31;4968647;28;20056;-50
2023/01/13 06:47:06;;;;;;;4.60;1.08;;;10.00;67.60;;;5.57;97.00;95428.75;4921301;28;20030;-53
2023/01/13 06:49:33;;;;;;;3.05;1.00;;;10.00;67.70;;;5.59;97.55;95427.72;4952774;28;20029;-54
2023/01/13 06:51:58;;;;;;;3.53;1.05;;;10.00;67.70;;;5.63;96.47;95419.06;4963478;28;20513;-55
2023/01/13 06:54:24;;;;;;;3.60;1.40;;;10.00;67.70;;;5.62;96.43;95422.75;4954861;28;20030;-53
2023/01/13 06:56:50;;;;;;;3.45;1.17;;;10.00;67.60;;;5.63;96.40;95419.06;4980745;28;20088;-51
2023/01/13 06:59:16;;;;;;;4.53;1.10;;;10.10;67.60;;;5.68;97.05;95413.09;4970415;28;20025;-55
2023/01/13 07:01:49;;;;;;;4.78;1.23;;;10.10;67.60;;;5.66;96.75;95415.16;4954118;28;20030;-52
2023/01/13 07:04:17;;;;;;;5.65;1.33;;;10.10;67.60;;;5.68;97.15;95407.81;4957264;28;20291;-56
2023/01/13 07:06:46;;;;;;;2.45;1.20;;;10.10;67.50;;;5.67;97.67;95412.28;4945267;28;20084;-50
2023/01/13 07:09:12;;;;;;;1.60;0.90;;;10.10;67.40;;;5.65;97.57;95421.50;4965695;28;20022;-53
2023/01/13 07:11:37;;;;;;;3.25;1.10;;;10.10;67.50;;;5.65;97.15;95419.66;4974587;28;20050;-50
2023/01/13 07:16:48;;;;;;;3.80;1.13;;;10.10;67.50;;;5.66;97.67;95433.66;4981286;28;20046;-56
2023/01/13 07:19:14;;;;;;;7.15;1.00;;;10.10;67.50;;;5.68;96.75;95416.53;4987358;28;20026;-55
2023/01/13 07:21:46;;;;;;;3.88;1.00;;;10.10;67.50;;;5.69;95.90;95412.84;4968702;28;20427;-50
2023/01/13 07:24:12;;;;;;;4.63;1.55;;;10.10;67.50;;;5.74;96.47;95407.66;4934925;28;20073;-50
2023/01/13 07:26:38;;;;;;;2.65;0.93;;;10.10;67.40;;;5.71;95.68;95408.13;4936470;28;20674;-49
2023/01/13 07:29:04;;;;;;;6.03;1.20;;;10.20;67.50;;;5.75;94.76;95416.38;4972056;28;20088;-51
2023/01/13 07:31:32;;;;;;;3.70;1.08;;;10.20;67.30;;;5.78;94.33;95421.19;4963456;28;20018;-50
2023/01/13 07:33:58;;;;;;;3.67;1.08;;;10.20;67.20;;;5.80;95.23;95427.84;4954554;28;20164;-52
2023/01/13 07:36:33;;;;;;;2.72;1.15;;;10.20;67.10;;;5.80;95.71;95422.56;4953307;28;20037;-52
2023/01/13 07:38:59;;;;;;;3.22;1.40;;;10.30;67.10;;;5.78;94.36;95422.00;4932805;28;20130;-50
2023/01/13 07:44:12;;;;;;;3.55;1.40;;;10.30;66.90;;;5.82;94.94;95414.38;4970618;28;20576;-50
2023/01/13 07:46:39;;;;;;;1.88;0.95;;;10.30;66.90;;;5.83;94.79;95421.28;4951888;28;20026;-52
2023/01/13 07:49:07;;;;;;;1.95;1.05;;;10.40;67.30;;;5.82;93.59;95416.22;4943312;28;20478;-52
2023/01/13 07:51:53;;;;;;;3.22;1.17;;;10.40;66.70;;;5.87;93.27;95411.03;4953888;28;20041;-50
2023/01/13 07:54:19;;;;;;;3.28;0.98;;;10.50;66.60;;;5.91;93.03;95420.88;4946714;28;20138;-51
2023/01/13 07:56:45;;;;;;;3.83;1.17;;;10.50;66.50;;;5.94;93.59;95417.78;4954197;28;20105;-51
2023/01/13 07:59:11;;;;;;;3.70;1.05;;;10.50;66.40;;;5.93;93.39;95423.34;4971086;28;20102;-49
2023/01/13 08:01:36;;;;;;;5.30;1.67;;;10.50;66.40;;;5.93;93.90;95429.41;4954344;28;20445;-52
2023/01/13 08:04:12;;;;;;;2.78;1.00;;;10.60;66.30;;;5.93;93.85;95428.63;4954684;28;20022;-49
2023/01/13 08:06:44;;;;;;;3.17;1.40;;;10.60;66.20;;;5.88;93.84;95426.66;4960066;28;20033;-50
2023/01/13 08:09:09;;;;;;;4.15;1.30;;;10.60;66.20;;;5.88;94.27;95423.19;4968132;28;20028;-50
2023/01/13 08:11:38;;;;;;;4.40;1.02;;;10.60;66.10;;;5.84;94.12;95427.38;4955995;28;20153;-57
2023/01/13 08:14:04;;;;;;;3.35;1.08;;;10.60;66.00;;;5.87;95.22;95430.34;4969938;28;20136;-53
2023/01/13 08:16:36;;;;;;;5.72;1.38;;;10.60;66.00;;;5.84;95.24;95430.81;4971315;28;20042;-49
2023/01/13 08:19:05;;;;;;;4.60;1.27;;;10.60;66.10;;;5.91;95.21;95433.31;4970219;28;20520;-51
2023/01/13 08:21:33;;;;;;;5.82;1.40;;;10.60;66.10;;;5.89;94.88;95433.56;4953257;28;20034;-51
2023/01/13 08:23:59;;;;;;;1.52;0.90;;;10.60;66.00;;;5.84;95.62;95435.31;4965567;28;20022;-49
2023/01/13 08:26:28;;;;;;;3.45;1.30;;;10.60;66.10;;;5.84;95.08;95440.59;4953771;28;20029;-52
2023/01/13 08:28:53;;;;;;;4.65;1.30;;;10.60;66.10;;;5.85;95.44;95442.19;4937103;28;20015;-49
2023/01/13 08:31:28;;;;;;;4.68;1.13;;;10.60;66.10;;;5.82;95.58;95440.81;4963836;28;20034;-51
2023/01/13 08:33:57;;;;;;;3.88;1.30;;;10.60;66.10;;;5.84;95.59;95443.22;4952800;28;20116;-50
2023/01/13 08:36:25;;;;;;;2.20;1.10;;;10.60;66.80;;;5.84;95.95;95441.38;4952279;28;20037;-49
2023/01/13 08:38:54;;;;;;;3.42;1.10;;;10.60;66.10;;;5.87;96.27;95443.56;4968432;28;20076;-48
2023/01/13 08:41:53;;;;;;;5.28;1.23;;;10.60;66.10;;;5.92;96.58;95453.41;4948526;28;20113;-51
2023/01/13 08:44:14;;;;;;;3.65;1.20;;;10.60;66.20;;;5.89;95.69;95451.22;4968431;28;20595;-51
2023/01/13 08:46:43;;;;;;;1.80;1.13;;;10.70;66.20;;;5.94;96.94;95451.38;4970294;28;20376;-49
2023/01/13 08:49:09;;;;;;;3.78;1.38;;;10.70;66.10;;;5.93;96.26;95447.13;4963915;28;20057;-50
2023/01/13 08:51:38;;;;;;;2.20;0.90;;;10.80;66.10;;;6.00;95.71;95450.41;4970545;28;20053;-48
2023/01/13 08:54:04;;;;;;;3.03;1.17;;;10.80;66.00;;;6.11;96.65;95461.94;4940515;28;20104;-49
2023/01/13 08:56:30;;;;;;;3.50;1.10;;;10.90;66.10;;;6.10;95.47;95463.81;4975225;28;20556;-49
2023/01/13 08:59:00;;;;;;;3.63;1.30;;;11.00;66.00;;;6.14;95.09;95466.75;4948830;28;20061;-50
2023/01/13 09:01:29;;;;;;;2.92;1.20;;;11.10;65.80;;;6.26;95.40;95468.28;4953675;28;20049;-49
2023/01/13 09:04:03;;;;;;;2.13;1.20;;;11.20;65.70;;;6.25;95.00;95461.41;4968854;28;20359;-51
2023/01/13 09:06:28;;;;;;;2.17;1.05;;;11.30;65.60;;;6.32;95.07;95452.50;4968665;28;20030;-50
2023/01/13 09:08:54;;;;;;;5.53;1.27;;;11.40;65.40;;;6.26;95.28;95444.50;4963768;28;20503;-48
2023/01/13 09:14:29;;;;;;;2.75;1.08;;;11.50;65.00;;;6.34;95.23;95461.03;4948944;28;20133;-50
2023/01/13 09:16:55;;;;;;;4.03;1.23;;;11.60;64.80;;;6.56;94.87;95461.91;4952232;28;20169;-58
2023/01/13 09:19:30;;;;;;;3.80;1.00;;;11.80;64.70;;;6.72;93.74;95458.44;4949101;28;20080;-51
2023/01/13 09:21:57;;;;;;;3.42;1.05;;;12.10;64.50;;;6.90;93.56;95470.59;4969518;28;20050;-56
2023/01/13 09:24:24;;;;;;;2.97;1.10;;;12.40;64.20;;;7.21;91.43;95471.00;4967715;28;20030;-52
2023/01/13 09:26:53;;;;;;;2.72;1.48;;;12.80;64.70;;;7.51;91.00;95467.91;4949062;28;20026;-53
2023/01/13 09:29:19;;;;;;;4.90;1.30;;;13.20;63.40;;;7.77;87.54;95474.31;4967890;28;20060;-51
2023/01/13 09:31:46;;;;;;;2.00;1.15;;;13.50;62.90;;;7.74;86.22;95458.91;4963244;28;20022;-49
2023/01/13 09:37:13;;;;;;;4.25;0.82;;;13.60;61.50;;;7.65;85.74;95460.41;4953850;28;20160;-51
2023/01/13 09:39:39;;;;;;;4.97;1.20;;;13.50;61.30;;;7.42;85.32;95490.59;4968020;28;20034;-50
2023/01/13 09:45:31;;;;;;;5.07;1.10;;;13.20;60.50;;;7.25;87.76;95489.88;4969216;28;20077;-50
2023/01/13 09:48:11;;;;;;;1.52;1.00;;;12.90;60.80;;;7.27;88.71;95475.34;4932621;28;20504;-50
2023/01/13 09:50:55;;;;;;;3.03;1.10;;;12.80;61.00;;;7.18;89.52;95482.09;4966822;28;20050;-51
2023/01/13 09:53:35;;;;;;;2.47;1.00;;;12.70;61.60;;;7.10;89.40;95501.84;4968908;28;20021;-50
2023/01/13 09:56:09;;;;;;;2.25;1.13;;;12.60;61.40;;;6.98;88.22;95503.00;4937683;29;20514;-49
2023/01/13 09:58:38;;;;;;;3.90;1.02;;;12.60;61.40;;;7.05;89.12;95511.56;4969316;28;20026;-52
2023/01/13 10:01:33;;;;;;;4.30;1.33;;;12.50;61.50;;;7.15;89.53;95507.22;4954216;28;20109;-56
2023/01/13 10:04:16;;;;;;;2.47;1.00;;;12.60;61.70;;;7.16;89.44;95513.31;4965126;28;20057;-49
2023/01/13 10:06:55;;;;;;;5.85;1.10;;;12.50;61.80;;;7.11;89.64;95500.81;4953199;28;20036;-49
2023/01/13 10:09:48;;;;;;;1.70;1.00;;;12.50;61.80;;;7.21;89.29;95507.28;4956823;28;20124;-49
2023/01/13 10:15:25;;;;;;;4.10;1.35;;;12.80;61.60;;;7.44;87.28;95493.81;4957567;28;20064;-56
2023/01/13 10:18:16;;;;;;;2.70;1.40;;;13.00;61.50;;;7.53;87.02;95497.63;4954206;28;20030;-54
2023/01/13 10:21:47;;;;;;;1.75;0.95;;;13.30;61.20;;;7.60;86.29;95511.50;4975316;28;20203;-49
2023/01/13 10:24:59;;;;;;;1.80;1.10;;;13.40;60.70;;;7.68;85.52;95497.03;4934084;28;20803;-53
2023/01/13 10:27:37;;;;;;;0.93;0.77;;;13.50;60.50;;;7.78;84.85;95504.28;4971354;28;20030;-49
2023/01/13 10:30:33;;;;;;;2.45;0.75;;;13.50;60.10;;;7.69;84.32;95506.56;4931919;28;20026;-53
2023/01/13 10:33:16;;;;;;;2.15;0.73;;;13.60;59.80;;;7.55;84.46;95518.56;4956058;28;20481;-50
2023/01/13 10:36:00;;;;;;;3.00;0.80;;;13.50;59.60;;;7.43;86.15;95521.38;4973207;28;20095;-49
2023/01/13 10:38:41;;;;;;;2.03;0.73;;;13.40;60.00;;;7.30;86.36;95521.72;4960761;28;20121;-52
2023/01/13 10:41:16;;;;;;;1.48;0.95;;;13.20;59.40;;;7.34;87.69;95521.00;4955348;28;20050;-54
2023/01/13 10:43:59;;;;;;;1.42;0.90;;;13.00;59.60;;;7.29;88.67;95533.38;4962923;28;20096;-48
2023/01/13 10:46:30;;;;;;;2.50;0.70;;;12.80;59.90;;;7.29;91.69;95520.13;4942789;28;20061;-52
2023/01/13 10:49:21;;;;;;;2.17;0.88;;;12.70;60.20;;;7.16;90.96;95526.56;4950865;28;20026;-51
2023/01/13 10:51:50;;;;;;;2.78;0.70;;;12.50;60.70;;;6.98;92.61;95521.53;4956561;28;20022;-53
2023/01/13 10:54:26;;;;;;;1.80;0.70;;;12.40;61.20;;;6.92;94.83;95526.75;4962188;28;20048;-55
2023/01/13 10:57:26;;;;;;;1.63;0.70;;;12.20;62.50;;;6.97;95.60;95533.97;4959787;28;20066;-48
2023/01/13 10:59:55;;;;;;;1.13;0.70;;;12.10;62.20;;;6.91;96.67;95519.84;4949611;28;20026;-53
2023/01/13 11:02:34;;;;;;;1.20;0.60;;;12.10;62.60;;;7.06;97.36;95521.13;4951271;28;20054;-52
2023/01/13 11:05:24;;;;;;;1.38;0.70;;;12.30;63.00;;;7.14;97.53;95529.44;4961831;28;20076;-50
2023/01/13 11:07:55;;;;;;;2.08;0.60;;;12.30;63.20;;;7.19;97.88;95531.38;4946013;28;20030;-48
2023/01/13 11:10:30;;;;;;;2.25;0.88;;;12.40;63.30;;;7.15;96.92;95544.31;4973257;28;20022;-49
2023/01/13 11:14:31;;;;;;;1.27;0.85;;;12.40;63.50;;;7.03;96.79;95543.59;4953998;28;20389;-49
2023/01/13 11:16:28;;;;;;;2.25;0.75;;;12.30;63.50;;;6.98;97.21;95545.38;4968900;28;20408;-52
2023/01/13 11:19:11;;;;;;;1.75;0.63;;;12.30;63.40;;;6.92;96.53;95552.44;4951807;28;20058;-53
2023/01/13 11:22:08;;;;;;;0.60;0.50;;;12.20;63.50;;;6.92;97.62;95555.88;4953554;28;20030;-49
2023/01/13 11:24:55;;;;;;;1.75;0.85;;;12.10;63.50;;;6.93;97.81;95554.06;4969742;28;20034;-48
2023/01/13 11:27:47;;;;;;;2.17;0.70;;;12.10;63.80;;;6.85;99.02;95549.94;4972134;28;20470;-50
2023/01/13 11:30:41;;;;;;;0.60;0.60;;;12.00;64.00;;;6.83;99.07;95551.22;4953863;28;20057;-51
2023/01/13 11:33:13;;;;;;;0.80;0.60;;;11.90;64.20;;;6.65;100.00;95547.78;4954951;28;20053;-49
2023/01/13 11:36:23;;;;;;;2.20;0.98;;;11.90;64.30;;;6.71;100.00;95532.81;4971359;28;20037;-49
2023/01/13 11:39:29;;;;;;;2.88;0.77;;;11.90;64.40;;;6.56;100.00;95521.97;4901349;29;20463;-56
2023/01/13 11:42:20;;;;;;;0.60;0.60;;;11.90;64.50;;;6.65;100.00;95515.25;4901445;29;20035;-56
2023/01/13 11:45:16;;;;;;;1.83;0.60;;;12.00;64.60;;;6.93;98.94;95514.34;4889783;29;20046;-53
2023/01/13 11:47:50;;;;;;;0.55;0.55;;;12.30;65.00;;;6.97;96.84;95512.78;4911611;29;20067;-48
2023/01/13 11:51:13;;;;;;;0.85;0.50;;;12.40;64.80;;;7.01;97.38;95508.59;4910612;29;20070;-54
2023/01/13 11:54:23;;;;;;;1.20;0.50;;;12.30;64.50;;;6.99;96.06;95510.72;4911266;29;20036;-49